Weather History for Tehachapi, CA

Change the Weather History Date:

Saturday, March 1, 2014

  Actual Average Record
Temperature  
Mean Temperature 40 °F -  
Max Temperature 44 °F 53 °F 66 °F (2013)
Min Temperature 37 °F 34 °F 26 °F (2013)
Degree Days  
Heating Degree Days 24    
Moisture  
Dew Point 36 °F    
Average Humidity 82    
Maximum Humidity 93    
Minimum Humidity 70    
Precipitation  
Precipitation 0.02 in - - ()
Sea Level Pressure  
Sea Level Pressure 29.79 in    
Wind  
Wind Speed 11 mph (ESE)    
Max Wind Speed 26 mph    
Max Gust Speed 33 mph    
Visibility 8 miles    
Events Rain    
Averages and records for this station are not official NWS values.
T = Trace of Precipitation, MM = Missing Value Source: NWS Daily Summary

Daily Weather History Graph

Daily Weather History Graph

Search for Another Location

Airport:

Trip Planner

Search our weather history database for the weather conditions in past years. The results will help you decide how hot, cold, wet, or windy it might be!

Date:

Astronomy

Mar. 01, 2014 Rise Set
Actual Time 6:23 AM PST 5:49 PM PST
Civil Twilight 5:57 AM PST 6:14 PM PST
Nautical Twilight 5:28 AM PST 6:44 PM PST
Astronomical Twilight 4:59 AM PST 7:13 PM PST
Moon 6:22 AM PST (3/1) 6:38 PM PST (3/1)
Length of Visible Light 12h 17m
Length of Day
11h 26m
New Moon, 0% of the Moon is Illuminated
Mar 1
New Moon
Mar 8
First Quarter
Mar 16
Full
Mar 23
Last Quarter
Mar 30
New

Hourly Weather History & Observations

Time (PST) Temp. Windchill Dew Point Humidity Pressure Visibility Wind Dir Wind Speed Gust Speed Precip Events Conditions
12:15 AM 39.2 °F 37.0 °F 33.8 °F 81% 29.69 in 10.0 mi ESE 3.5 mph - N/A   Mostly Cloudy
12:35 AM 39.2 °F 34.2 °F 33.8 °F 81% 29.69 in 10.0 mi East 6.9 mph - N/A   Mostly Cloudy
12:55 AM 39.2 °F 33.6 °F 35.6 °F 87% 29.69 in 10.0 mi ENE 8.1 mph - N/A   Mostly Cloudy
1:15 AM 39.2 °F 35.0 °F 35.6 °F 87% 29.70 in 10.0 mi North 5.8 mph - N/A   Mostly Cloudy
1:35 AM 41.0 °F 35.8 °F 35.6 °F 81% 29.70 in 5.0 mi ESE 8.1 mph - N/A Rain Light Rain
1:55 AM 39.2 °F 33.6 °F 35.6 °F 87% 29.71 in 10.0 mi ENE 8.1 mph - N/A   Mostly Cloudy
2:15 AM 39.2 °F 35.9 °F 35.6 °F 87% 29.71 in 10.0 mi ENE 4.6 mph - N/A   Mostly Cloudy
2:35 AM 41.0 °F 34.7 °F 35.6 °F 81% 29.69 in 10.0 mi East 10.4 mph - N/A   Overcast
2:55 AM 41.0 °F 35.2 °F 35.6 °F 81% 29.69 in 10.0 mi ESE 9.2 mph - N/A   Overcast
3:15 AM 41.0 °F 34.7 °F 35.6 °F 81% 29.69 in 10.0 mi ESE 10.4 mph - N/A   Overcast
3:35 AM 41.0 °F 35.8 °F 35.6 °F 81% 29.70 in 10.0 mi ESE 8.1 mph - N/A   Overcast
3:55 AM 41.0 °F 35.2 °F 35.6 °F 81% 29.69 in 10.0 mi East 9.2 mph - N/A   Overcast
4:15 AM 41.0 °F 34.7 °F 33.8 °F 76% 29.70 in 10.0 mi East 10.4 mph - N/A   Mostly Cloudy
4:35 AM 41.0 °F 34.7 °F 32.0 °F 70% 29.71 in 10.0 mi SE 10.4 mph - N/A   Mostly Cloudy
4:55 AM 41.0 °F 35.8 °F 33.8 °F 76% 29.71 in 8.0 mi SE 8.1 mph - N/A Rain Light Rain
5:15 AM 41.0 °F 35.8 °F 33.8 °F 76% 29.71 in 10.0 mi East 8.1 mph - N/A   Overcast
5:35 AM 41.0 °F 35.2 °F 33.8 °F 76% 29.72 in 10.0 mi East 9.2 mph - N/A   Overcast
5:55 AM 41.0 °F 35.8 °F 33.8 °F 76% 29.72 in 9.0 mi East 8.1 mph - N/A   Mostly Cloudy
6:15 AM 39.2 °F 33.0 °F 35.6 °F 87% 29.73 in 10.0 mi ENE 9.2 mph - N/A   Overcast
6:35 AM 39.2 °F 34.2 °F 35.6 °F 87% 29.74 in 8.0 mi East 6.9 mph - N/A   Mostly Cloudy
6:55 AM 39.2 °F 31.2 °F 35.6 °F 87% 29.73 in 8.0 mi East 13.8 mph 21.9 mph N/A   Partly Cloudy
7:15 AM 41.0 °F 32.2 °F 35.6 °F 81% 29.73 in 10.0 mi ESE 18.4 mph 25.3 mph N/A   Clear
7:35 AM 41.0 °F 33.5 °F 35.6 °F 81% 29.74 in 10.0 mi East 13.8 mph 20.7 mph N/A   Clear
7:55 AM 41.0 °F 32.5 °F 37.4 °F 87% 29.74 in 9.0 mi East 17.3 mph 25.3 mph N/A   Partly Cloudy
8:15 AM 41.0 °F 31.4 °F 37.4 °F 87% 29.75 in 5.0 mi ESE 21.9 mph 33.4 mph N/A   Haze
8:35 AM 41.0 °F 30.5 °F 37.4 °F 87% 29.74 in 8.0 mi East 26.5 mph 31.1 mph N/A   Mostly Cloudy
8:55 AM 41.0 °F 31.1 °F 37.4 °F 87% 29.74 in 8.0 mi East 23.0 mph 33.4 mph N/A   Partly Cloudy
9:15 AM 41.0 °F 31.4 °F 37.4 °F 87% 29.75 in 5.0 mi ESE 21.9 mph 31.1 mph N/A   Partly Cloudy
9:35 AM 44.6 °F 36.9 °F 39.2 °F 81% 29.76 in 9.0 mi East 18.4 mph 27.6 mph N/A   Scattered Clouds
9:55 AM 44.6 °F 36.1 °F 39.2 °F 81% 29.78 in 9.0 mi ESE 21.9 mph 31.1 mph N/A   Clear
10:15 AM 44.6 °F 36.6 °F 39.2 °F 81% 29.78 in 3.0 mi ESE 19.6 mph 28.8 mph N/A Rain Light Rain
10:35 AM 44.6 °F 35.9 °F 37.4 °F 76% 29.79 in 10.0 mi ESE 23.0 mph 29.9 mph N/A   Partly Cloudy
10:55 AM 44.6 °F 36.4 °F 37.4 °F 76% 29.79 in 10.0 mi ESE 20.7 mph 32.2 mph N/A   Mostly Cloudy
11:15 AM 44.6 °F 36.6 °F 39.2 °F 81% 29.79 in 5.0 mi East 19.6 mph 26.5 mph N/A Rain Light Rain
11:35 AM 44.6 °F 36.4 °F 39.2 °F 81% 29.80 in 7.0 mi ESE 20.7 mph 24.2 mph N/A   Mostly Cloudy
11:55 AM 44.6 °F 37.2 °F 37.4 °F 76% 29.80 in 7.0 mi ESE 17.3 mph 23.0 mph N/A   Mostly Cloudy
12:15 PM 44.6 °F 37.8 °F 39.2 °F 81% 29.80 in 4.0 mi ESE 15.0 mph 24.2 mph N/A Rain Light Rain
12:35 PM 44.6 °F 37.4 °F 37.4 °F 76% 29.80 in 9.0 mi ESE 16.1 mph 25.3 mph N/A   Overcast
12:55 PM 44.6 °F 37.8 °F 37.4 °F 76% 29.80 in 8.0 mi ESE 15.0 mph 23.0 mph N/A   Overcast
1:15 PM 44.6 °F 37.8 °F 37.4 °F 76% 29.80 in 10.0 mi ESE 15.0 mph 21.9 mph N/A   Overcast
1:35 PM 44.6 °F 38.4 °F 37.4 °F 76% 29.80 in 8.0 mi ESE 12.7 mph - N/A Rain Light Rain
1:55 PM 44.6 °F 37.4 °F 37.4 °F 76% 29.80 in 9.0 mi ESE 16.1 mph - N/A Rain Light Rain
2:15 PM 44.6 °F 38.8 °F 37.4 °F 76% 29.80 in 9.0 mi East 11.5 mph 17.3 mph N/A   Overcast
2:35 PM 44.6 °F 38.4 °F 39.2 °F 81% 29.80 in 4.0 mi ESE 12.7 mph 20.7 mph N/A Rain Light Rain
2:55 PM 44.6 °F 37.8 °F 39.2 °F 81% 29.80 in 3.0 mi SE 15.0 mph 24.2 mph N/A Rain Light Rain
3:15 PM 42.8 °F 36.6 °F 39.2 °F 87% 29.81 in 2.0 mi East 11.5 mph - N/A Rain Light Rain
3:35 PM 42.8 °F 36.2 °F 39.2 °F 87% 29.81 in 2.5 mi ESE 12.7 mph 21.9 mph 0.01 in Rain Light Rain
3:55 PM 42.8 °F 35.4 °F 37.4 °F 81% 29.81 in 4.0 mi ESE 15.0 mph - 0.01 in Rain Light Rain
4:15 PM 42.8 °F 36.6 °F 39.2 °F 87% 29.81 in 5.0 mi ESE 11.5 mph 19.6 mph N/A Rain Light Rain
4:35 PM 42.8 °F 37.0 °F 39.2 °F 87% 29.81 in 2.5 mi ESE 10.4 mph - N/A Rain Light Rain
4:55 PM 42.8 °F 35.4 °F 39.2 °F 87% 29.81 in 2.0 mi ESE 15.0 mph 18.4 mph 0.01 in Rain Light Rain
5:15 PM 42.8 °F 35.4 °F 37.4 °F 81% 29.82 in 9.0 mi ESE 15.0 mph 19.6 mph N/A   Mostly Cloudy
5:35 PM 41.0 °F 33.5 °F 37.4 °F 87% 29.83 in 5.0 mi ESE 13.8 mph - N/A   Overcast
5:55 PM 41.0 °F 34.7 °F 39.2 °F 93% 29.84 in 4.0 mi ESE 10.4 mph 20.7 mph N/A Rain Light Rain
6:15 PM 41.0 °F 34.7 °F 37.4 °F 87% 29.85 in 10.0 mi East 10.4 mph - N/A   Overcast
6:35 PM 41.0 °F 33.5 °F 37.4 °F 87% 29.85 in 10.0 mi ESE 13.8 mph 20.7 mph N/A   Overcast
6:55 PM 41.0 °F 34.7 °F 37.4 °F 87% 29.87 in 10.0 mi ESE 10.4 mph - N/A   Overcast
7:15 PM 41.0 °F 33.9 °F 37.4 °F 87% 29.87 in 10.0 mi East 12.7 mph - N/A   Overcast
7:35 PM 41.0 °F 32.2 °F 35.6 °F 81% 29.87 in 10.0 mi ESE 18.4 mph 21.9 mph N/A   Mostly Cloudy
7:55 PM 41.0 °F 33.5 °F 35.6 °F 81% 29.88 in 10.0 mi East 13.8 mph 21.9 mph N/A   Mostly Cloudy
8:15 PM 41.0 °F 33.9 °F 35.6 °F 81% 29.88 in 10.0 mi ESE 12.7 mph 17.3 mph N/A   Scattered Clouds
8:35 PM 41.0 °F 34.3 °F 35.6 °F 81% 29.88 in 10.0 mi East 11.5 mph 17.3 mph N/A   Overcast
8:55 PM 41.0 °F 35.2 °F 35.6 °F 81% 29.89 in 10.0 mi East 9.2 mph 17.3 mph N/A   Overcast
9:15 PM 41.0 °F 33.5 °F 35.6 °F 81% 29.88 in 10.0 mi East 13.8 mph - N/A   Overcast
9:35 PM 41.0 °F 33.9 °F 35.6 °F 81% 29.88 in 10.0 mi ESE 12.7 mph 19.6 mph N/A   Partly Cloudy
9:55 PM 41.0 °F 33.9 °F 35.6 °F 81% 29.88 in 10.0 mi East 12.7 mph 23.0 mph N/A   Clear
10:15 PM 41.0 °F 38.0 °F 35.6 °F 81% 29.89 in 10.0 mi SE 4.6 mph - N/A   Clear
10:35 PM 41.0 °F 35.2 °F 35.6 °F 81% 29.90 in 10.0 mi East 9.2 mph - N/A   Clear
10:55 PM 41.0 °F 35.2 °F 33.8 °F 76% 29.91 in 10.0 mi East 9.2 mph - N/A   Clear
11:15 PM 39.2 °F 32.0 °F 35.6 °F 87% 29.91 in 10.0 mi East 11.5 mph - N/A   Clear
11:35 PM 37.4 °F 32.1 °F 33.8 °F 87% 29.92 in 10.0 mi SE 6.9 mph - N/A   Clear
11:55 PM 37.4 °F 33.8 °F 32.0 °F 81% 29.94 in 10.0 mi SE 4.6 mph - N/A   Clear